createdAt,value
2019-04-30T00:01:18.926Z,101470.19
2019-04-30T00:03:25.037Z,101467.63
2019-04-30T00:05:26.481Z,101468.62
2019-04-30T00:07:27.867Z,101470.47
2019-04-30T00:09:29.972Z,101473.62
2019-04-30T00:11:31.323Z,101465.34
2019-04-30T00:13:32.779Z,101460.06
2019-04-30T00:15:35.705Z,101457.56
2019-04-30T00:17:37.283Z,101456.30
2019-04-30T00:19:38.666Z,101454.84
2019-04-30T00:21:40.048Z,101452.56
2019-04-30T00:23:41.568Z,101445.85
2019-04-30T00:25:43.005Z,101447.66
2019-04-30T00:27:45.905Z,101442.15
2019-04-30T00:29:47.759Z,101444.33
2019-04-30T00:31:49.144Z,101442.36
2019-04-30T00:33:52.741Z,101439.98
2019-04-30T00:35:55.145Z,101437.58
2019-04-30T00:38:00.108Z,101431.75
2019-04-30T00:40:00.432Z,101434.63
2019-04-30T00:42:01.857Z,101434.91
2019-04-30T00:44:05.295Z,101436.10
2019-04-30T00:46:06.720Z,101436.16
2019-04-30T00:48:08.125Z,101441.98
2019-04-30T00:50:09.616Z,101439.27
2019-04-30T00:52:11.008Z,101434.36
2019-04-30T00:54:12.425Z,101438.33
2019-04-30T00:56:15.654Z,101438.67
2019-04-30T00:58:24.771Z,101443.66
2019-04-30T01:00:26.010Z,101441.71
2019-04-30T01:02:32.312Z,101443.23
2019-04-30T01:04:38.707Z,101440.52
2019-04-30T01:06:40.096Z,101440.17
2019-04-30T01:08:41.535Z,101442.67
2019-04-30T01:10:42.903Z,101437.34
2019-04-30T01:12:47.995Z,101438.95
2019-04-30T01:14:49.664Z,101438.36
2019-04-30T01:16:50.895Z,101437.04
2019-04-30T01:18:52.326Z,101443.53
2019-04-30T01:20:53.779Z,101439.14
2019-04-30T01:22:55.264Z,101437.92
2019-04-30T01:25:02.853Z,101440.31
2019-04-30T01:27:06.585Z,101440.63
2019-04-30T01:29:03.970Z,101436.81
2019-04-30T01:31:06.091Z,101441.72
2019-04-30T01:33:09.138Z,101439.45
2019-04-30T01:35:11.236Z,101439.75
2019-04-30T01:37:12.661Z,101438.09
2019-04-30T01:39:14.051Z,101434.86
2019-04-30T01:41:15.417Z,101437.84
2019-04-30T01:43:23.132Z,101440.59
2019-04-30T01:45:23.276Z,101437.41
2019-04-30T01:47:27.719Z,101435.09
2019-04-30T01:49:28.816Z,101433.28
2019-04-30T01:51:30.074Z,101433.20
2019-04-30T01:53:31.491Z,101431.74
2019-04-30T01:55:34.777Z,101430.48
2019-04-30T01:57:43.803Z,101437.13
2019-04-30T02:00:03.631Z,101436.94
2019-04-30T02:02:05.172Z,101433.36
2019-04-30T02:04:08.467Z,101431.32
2019-04-30T02:06:11.585Z,101430.95
2019-04-30T02:08:13.142Z,101437.59
2019-04-30T02:10:14.848Z,101436.94
2019-04-30T02:12:16.213Z,101440.32
2019-04-30T02:14:18.978Z,101446.19
2019-04-30T02:16:21.107Z,101443.37
2019-04-30T02:18:22.703Z,101447.37
2019-04-30T02:20:24.078Z,101443.79
2019-04-30T02:22:25.475Z,101446.48
2019-04-30T02:24:28.779Z,101445.95
2019-04-30T02:26:30.117Z,101447.30
2019-04-30T02:28:31.511Z,101448.03
2019-04-30T02:30:32.890Z,101451.53
2019-04-30T02:32:34.252Z,101450.51
2019-04-30T02:34:44.048Z,101446.03
2019-04-30T02:36:49.920Z,101446.92
2019-04-30T02:38:56.104Z,101446.14
2019-04-30T02:40:59.486Z,101448.27
2019-04-30T02:43:02.319Z,101449.38
2019-04-30T02:45:10.139Z,101449.45
2019-04-30T02:47:12.502Z,101448.19
2019-04-30T02:49:14.239Z,101447.45
2019-04-30T02:51:20.176Z,101451.84
2019-04-30T02:53:51.027Z,101452.95
2019-04-30T02:55:52.391Z,101454.66
2019-04-30T02:57:53.752Z,101455.77
2019-04-30T03:00:06.283Z,101466.03
2019-04-30T03:02:11.487Z,101461.86
2019-04-30T03:04:10.946Z,101462.22
2019-04-30T03:06:12.351Z,101463.20
2019-04-30T03:08:13.758Z,101460.50
2019-04-30T03:10:15.140Z,101463.72
2019-04-30T03:12:16.567Z,101464.08
2019-04-30T03:14:19.990Z,101466.39
2019-04-30T03:16:23.616Z,101471.41
2019-04-30T03:18:30.046Z,101469.75
2019-04-30T03:20:41.287Z,101468.87
2019-04-30T03:22:42.875Z,101467.30
2019-04-30T03:24:44.246Z,101467.63
2019-04-30T03:26:45.736Z,101470.75
2019-04-30T03:28:49.203Z,101476.84
2019-04-30T03:30:56.182Z,101469.42
2019-04-30T03:32:56.950Z,101469.90
2019-04-30T03:34:57.020Z,101473.26
2019-04-30T03:37:01.727Z,101475.75
2019-04-30T03:39:01.674Z,101478.55
2019-04-30T03:41:03.148Z,101476.47
2019-04-30T03:43:04.547Z,101473.05
2019-04-30T03:45:06.241Z,101470.86
2019-04-30T03:47:10.610Z,101474.55
2019-04-30T03:49:13.368Z,101476.52
2019-04-30T03:51:14.641Z,101483.36
2019-04-30T03:53:16.053Z,101479.20
2019-04-30T03:55:20.350Z,101483.00
2019-04-30T03:57:20.840Z,101487.23
2019-04-30T03:59:22.175Z,101489.22
2019-04-30T04:01:31.607Z,101491.66
2019-04-30T04:03:34.936Z,101491.19
2019-04-30T04:05:41.034Z,101492.95
2019-04-30T04:07:52.501Z,101494.72
2019-04-30T04:10:01.265Z,101491.58
2019-04-30T04:12:23.105Z,101491.72
2019-04-30T04:14:24.577Z,101489.59
2019-04-30T04:16:26.270Z,101494.53
2019-04-30T04:18:30.077Z,101497.38
2019-04-30T04:20:30.963Z,101494.75
2019-04-30T04:22:32.369Z,101492.02
2019-04-30T04:24:33.713Z,101498.82
2019-04-30T04:26:35.198Z,101502.78
2019-04-30T04:28:36.524Z,101506.66
2019-04-30T04:30:39.268Z,101506.88
2019-04-30T04:32:41.224Z,101513.77
2019-04-30T04:34:44.978Z,101512.81
2019-04-30T04:36:46.390Z,101510.83
2019-04-30T04:38:50.419Z,101510.22
2019-04-30T04:40:51.139Z,101512.95
2019-04-30T04:42:52.529Z,101515.60
2019-04-30T04:44:53.965Z,101517.94
2019-04-30T04:46:55.720Z,101517.45
2019-04-30T04:48:59.387Z,101519.64
2019-04-30T04:51:00.409Z,101516.02
2019-04-30T04:53:01.788Z,101515.67
2019-04-30T04:55:06.697Z,101514.50
2019-04-30T04:57:15.028Z,101517.92
2019-04-30T04:59:11.335Z,101521.55
2019-04-30T05:01:12.749Z,101516.20
2019-04-30T05:03:20.171Z,101523.41
2019-04-30T05:05:21.804Z,101522.61
2019-04-30T05:07:23.247Z,101520.53
2019-04-30T05:09:24.613Z,101528.61
2019-04-30T05:11:26.000Z,101529.63
2019-04-30T05:13:29.082Z,101521.51
2019-04-30T05:15:30.616Z,101525.20
2019-04-30T05:17:32.207Z,101526.34
2019-04-30T05:19:33.716Z,101529.16
2019-04-30T05:21:44.140Z,101523.14
2019-04-30T05:23:41.110Z,101530.77
2019-04-30T05:25:41.725Z,101534.11
2019-04-30T05:27:45.336Z,101524.69
2019-04-30T05:29:46.761Z,101533.63
2019-04-30T05:31:48.695Z,101528.41
2019-04-30T05:33:50.122Z,101534.04
2019-04-30T05:35:51.544Z,101531.72
2019-04-30T05:37:52.914Z,101537.18
2019-04-30T05:39:54.299Z,101533.99
2019-04-30T05:41:55.777Z,101530.73
2019-04-30T05:43:58.981Z,101529.89
2019-04-30T05:46:00.483Z,101531.50
2019-04-30T05:48:01.849Z,101526.90
2019-04-30T05:50:08.916Z,101530.56
2019-04-30T05:52:11.650Z,101531.23
2019-04-30T05:54:13.190Z,101534.23
2019-04-30T05:56:14.596Z,101535.71
2019-04-30T05:58:16.207Z,101533.16
2019-04-30T06:00:19.134Z,101525.69
2019-04-30T06:02:21.901Z,101531.94
2019-04-30T06:04:23.270Z,101529.17
2019-04-30T06:06:24.775Z,101532.13
2019-04-30T06:08:29.200Z,101540.06
2019-04-30T06:10:32.674Z,101533.12
2019-04-30T06:12:35.989Z,101532.56
2019-04-30T06:14:49.935Z,101531.17
2019-04-30T06:17:05.208Z,101532.98
2019-04-30T06:19:08.387Z,101534.56
2019-04-30T06:21:09.948Z,101533.61
2019-04-30T06:23:11.366Z,101537.05
2019-04-30T06:25:12.863Z,101538.02
2019-04-30T06:27:14.546Z,101533.78
2019-04-30T06:29:16.102Z,101533.44
2019-04-30T06:31:26.078Z,101533.57
2019-04-30T06:33:21.174Z,101533.34
2019-04-30T06:35:22.844Z,101531.48
2019-04-30T06:37:24.451Z,101536.64
2019-04-30T06:39:25.941Z,101538.11
2019-04-30T06:41:29.537Z,101535.00
2019-04-30T06:43:31.042Z,101533.70
2019-04-30T06:45:34.414Z,101530.73
2019-04-30T06:47:38.781Z,101533.25
2019-04-30T06:49:39.987Z,101528.26
2019-04-30T06:51:41.450Z,101526.11
2019-04-30T06:53:42.913Z,101512.74
2019-04-30T06:55:44.327Z,101516.67
2019-04-30T06:57:45.790Z,101524.52
2019-04-30T06:59:47.178Z,101521.34
2019-04-30T07:01:49.012Z,101511.40
2019-04-30T07:03:50.630Z,101520.89
2019-04-30T07:05:52.116Z,101516.69
2019-04-30T07:08:12.441Z,101521.05
2019-04-30T07:10:16.839Z,101519.34
2019-04-30T07:12:27.882Z,101517.20
2019-04-30T07:14:29.160Z,101514.02
2019-04-30T07:16:30.387Z,101516.28
2019-04-30T07:18:31.760Z,101514.39
2019-04-30T07:20:34.107Z,101521.97
2019-04-30T07:22:41.106Z,101517.59
2019-04-30T07:24:39.455Z,101511.58
2019-04-30T07:26:40.977Z,101513.28
2019-04-30T07:28:47.924Z,101510.59
2019-04-30T07:30:45.664Z,101513.44
2019-04-30T07:32:48.802Z,101512.69
2019-04-30T07:34:50.379Z,101508.12
2019-04-30T07:37:10.939Z,101506.09
2019-04-30T07:38:56.848Z,101507.23
2019-04-30T07:40:59.148Z,101514.53
2019-04-30T07:43:00.632Z,101508.71
2019-04-30T07:45:05.192Z,101513.64
2019-04-30T07:47:06.571Z,101513.16
2019-04-30T07:49:10.046Z,101510.30
2019-04-30T07:51:11.810Z,101511.50
2019-04-30T07:53:13.693Z,101515.48
2019-04-30T07:55:15.092Z,101506.65
2019-04-30T07:57:16.452Z,101506.92
2019-04-30T07:59:19.985Z,101506.41
2019-04-30T08:01:21.111Z,101500.59
2019-04-30T08:03:29.938Z,101500.94
2019-04-30T08:05:32.431Z,101504.48
2019-04-30T08:07:33.880Z,101509.48
2019-04-30T08:09:39.827Z,101500.52
2019-04-30T08:11:41.926Z,101508.47
2019-04-30T08:13:42.592Z,101514.02
2019-04-30T08:15:44.664Z,101508.63
2019-04-30T08:17:46.031Z,101510.53
2019-04-30T08:19:48.948Z,101512.38
2019-04-30T08:21:50.567Z,101512.36
2019-04-30T08:23:51.919Z,101509.66
2019-04-30T08:25:53.902Z,101509.47
2019-04-30T08:27:55.266Z,101506.66
2019-04-30T08:29:56.657Z,101502.28
2019-04-30T08:31:59.366Z,101496.58
2019-04-30T08:34:01.011Z,101492.88
2019-04-30T08:36:02.396Z,101498.09
2019-04-30T08:38:03.749Z,101497.23
2019-04-30T08:40:05.876Z,101496.77
2019-04-30T08:42:09.009Z,101494.42
2019-04-30T08:44:11.100Z,101498.73
2019-04-30T08:46:12.542Z,101498.35
2019-04-30T08:48:13.929Z,101496.36
2019-04-30T08:50:15.625Z,101492.62
2019-04-30T08:52:19.230Z,101493.41
2019-04-30T08:54:20.792Z,101487.83
2019-04-30T08:56:22.430Z,101487.83
2019-04-30T08:58:23.851Z,101488.77
2019-04-30T09:00:25.230Z,101480.63
2019-04-30T09:02:26.672Z,101482.98
2019-04-30T09:04:29.148Z,101482.25
2019-04-30T09:06:30.682Z,101480.70
2019-04-30T09:08:32.500Z,101485.23
2019-04-30T09:10:33.887Z,101489.77
2019-04-30T09:12:35.243Z,101490.43
2019-04-30T09:14:40.453Z,101490.58
2019-04-30T09:16:41.472Z,101492.41
2019-04-30T09:18:42.909Z,101492.20
2019-04-30T09:20:44.328Z,101488.30
2019-04-30T09:22:45.716Z,101485.48
2019-04-30T09:24:49.529Z,101478.69
2019-04-30T09:26:50.360Z,101485.38
2019-04-30T09:28:51.795Z,101485.70
2019-04-30T09:30:53.136Z,101487.28
2019-04-30T09:32:54.522Z,101483.78
2019-04-30T09:34:55.934Z,101476.13
2019-04-30T09:36:58.921Z,101472.45
2019-04-30T09:39:01.385Z,101471.34
2019-04-30T09:41:03.283Z,101467.24
2019-04-30T09:43:04.675Z,101467.02
2019-04-30T09:45:06.261Z,101459.36
2019-04-30T09:47:08.886Z,101461.45
2019-04-30T09:49:10.546Z,101459.11
2019-04-30T09:51:12.614Z,101462.44
2019-04-30T09:53:14.324Z,101463.50
2019-04-30T09:55:15.744Z,101460.97
2019-04-30T09:57:19.255Z,101459.48
2019-04-30T09:59:20.384Z,101465.03
2019-04-30T10:01:22.147Z,101458.78
2019-04-30T10:03:24.606Z,101452.69
2019-04-30T10:05:26.284Z,101459.52
2019-04-30T10:07:29.359Z,101455.39
2019-04-30T10:09:30.949Z,101455.91
2019-04-30T10:11:34.248Z,101448.30
2019-04-30T10:13:35.656Z,101453.74
2019-04-30T10:15:39.002Z,101453.74
2019-04-30T10:17:44.944Z,101453.99
2019-04-30T10:19:46.303Z,101452.23
2019-04-30T10:21:48.972Z,101449.42
2019-04-30T10:23:50.548Z,101451.75
2019-04-30T10:25:52.048Z,101446.36
2019-04-30T10:27:53.743Z,101437.20
2019-04-30T10:29:55.315Z,101430.70
2019-04-30T10:31:58.677Z,101423.19
2019-04-30T10:34:00.023Z,101427.69
2019-04-30T10:36:01.402Z,101426.92
2019-04-30T10:38:03.757Z,101421.70
2019-04-30T10:40:10.346Z,101417.22
2019-04-30T10:42:12.089Z,101418.72
2019-04-30T10:44:13.468Z,101411.62
2019-04-30T10:46:14.886Z,101413.70
2019-04-30T10:48:16.238Z,101416.13
2019-04-30T10:50:17.722Z,101417.81
2019-04-30T10:52:19.317Z,101415.84
2019-04-30T10:54:26.139Z,101414.39
2019-04-30T10:56:23.980Z,101413.09
2019-04-30T10:58:25.404Z,101404.50
2019-04-30T11:00:40.861Z,101403.13
2019-04-30T11:02:42.318Z,101400.80
2019-04-30T11:04:43.717Z,101402.92
2019-04-30T11:06:45.143Z,101405.16
2019-04-30T11:08:46.540Z,101407.89
2019-04-30T11:10:47.894Z,101399.70
2019-04-30T11:12:49.278Z,101402.27
2019-04-30T11:14:50.728Z,101404.41
2019-04-30T11:16:52.273Z,101402.32
2019-04-30T11:18:54.235Z,101404.74
2019-04-30T11:20:55.963Z,101402.77
2019-04-30T11:22:57.908Z,101398.74
2019-04-30T11:25:02.635Z,101402.36
2019-04-30T11:27:03.555Z,101400.94
2019-04-30T11:29:05.413Z,101392.00
2019-04-30T11:31:24.194Z,101382.73
2019-04-30T11:33:25.922Z,101377.44
2019-04-30T11:35:29.521Z,101374.03
2019-04-30T11:37:30.798Z,101375.41
2019-04-30T11:39:32.217Z,101366.45
2019-04-30T11:41:33.657Z,101368.09
2019-04-30T11:43:35.026Z,101368.92
2019-04-30T11:45:54.136Z,101363.72
2019-04-30T11:47:55.546Z,101359.21
2019-04-30T11:49:56.931Z,101360.39
2019-04-30T11:51:58.388Z,101356.86
2019-04-30T11:54:00.153Z,101362.13
2019-04-30T11:56:01.743Z,101354.66
2019-04-30T11:58:03.322Z,101352.79
2019-04-30T12:00:13.411Z,101356.33
2019-04-30T12:02:19.097Z,101350.12
2019-04-30T12:04:21.174Z,101355.50
2019-04-30T12:06:22.677Z,101351.99
2019-04-30T12:08:26.650Z,101355.09
2019-04-30T12:10:30.046Z,101351.03
2019-04-30T12:12:31.418Z,101350.33
2019-04-30T12:14:32.828Z,101346.91
2019-04-30T12:16:34.188Z,101346.07
2019-04-30T12:18:35.612Z,101346.83
2019-04-30T12:20:36.996Z,101339.82
2019-04-30T12:22:39.725Z,101345.89
2019-04-30T12:24:41.162Z,101340.78
2019-04-30T12:26:42.568Z,101335.83
2019-04-30T12:28:43.997Z,101336.88
2019-04-30T12:30:45.397Z,101335.16
2019-04-30T12:32:46.756Z,101336.16
2019-04-30T12:34:48.125Z,101336.86
2019-04-30T12:36:49.704Z,101334.28
2019-04-30T12:38:51.159Z,101324.58
2019-04-30T12:40:52.524Z,101328.67
2019-04-30T12:42:53.906Z,101330.84
2019-04-30T12:44:55.379Z,101328.05
2019-04-30T12:46:58.663Z,101324.70
2019-04-30T12:49:04.738Z,101325.08
2019-04-30T12:51:10.919Z,101317.73
2019-04-30T12:53:14.301Z,101316.95
2019-04-30T12:55:32.896Z,101309.72
2019-04-30T12:57:36.193Z,101311.63
2019-04-30T12:59:37.581Z,101314.41
2019-04-30T13:01:39.962Z,101313.77
2019-04-30T13:03:41.396Z,101308.75
2019-04-30T13:05:43.079Z,101307.39
2019-04-30T13:07:45.250Z,101298.20
2019-04-30T13:09:49.462Z,101303.33
2019-04-30T13:11:51.261Z,101298.30
2019-04-30T13:13:53.868Z,101298.25
2019-04-30T13:15:55.678Z,101300.87
2019-04-30T13:17:58.565Z,101291.84
2019-04-30T13:20:00.181Z,101285.58
2019-04-30T13:22:01.555Z,101285.32
2019-04-30T13:24:03.118Z,101280.03
2019-04-30T13:26:04.544Z,101287.44
2019-04-30T13:28:10.902Z,101283.53
2019-04-30T13:30:18.611Z,101276.64
2019-04-30T13:32:29.524Z,101276.52
2019-04-30T13:34:43.262Z,101270.89
2019-04-30T13:36:44.747Z,101268.22
2019-04-30T13:38:54.183Z,101264.28
2019-04-30T13:41:12.662Z,101263.14
2019-04-30T13:43:15.919Z,101259.25
2019-04-30T13:45:18.684Z,101257.94
2019-04-30T13:47:20.686Z,101261.05
2019-04-30T13:49:22.026Z,101256.89
2019-04-30T13:51:23.387Z,101250.22
2019-04-30T13:53:24.790Z,101264.95
2019-04-30T13:55:26.139Z,101261.92
2019-04-30T13:57:27.552Z,101260.92
2019-04-30T13:59:28.933Z,101261.19
2019-04-30T14:01:30.376Z,101254.53
2019-04-30T14:03:33.696Z,101260.51
2019-04-30T14:05:35.111Z,101251.91
2019-04-30T14:07:49.552Z,101252.59
2019-04-30T14:09:52.406Z,101250.00
2019-04-30T14:11:53.959Z,101248.61
2019-04-30T14:13:55.342Z,101243.72
2019-04-30T14:15:56.738Z,101248.94
2019-04-30T14:17:59.702Z,101243.42
2019-04-30T14:20:01.344Z,101241.52
2019-04-30T14:22:03.754Z,101243.88
2019-04-30T14:24:05.141Z,101247.30
2019-04-30T14:26:06.535Z,101241.82
2019-04-30T14:28:09.419Z,101244.86
2019-04-30T14:30:12.839Z,101246.72
2019-04-30T14:32:14.240Z,101242.00
2019-04-30T14:34:15.606Z,101242.89
2019-04-30T14:36:19.291Z,101253.69
2019-04-30T14:38:20.284Z,101250.13
2019-04-30T14:40:22.376Z,101248.86
2019-04-30T14:42:24.937Z,101255.99
2019-04-30T14:44:31.464Z,101249.23
2019-04-30T14:46:37.434Z,101250.87
2019-04-30T14:49:00.622Z,101263.02
2019-04-30T14:51:02.402Z,101257.70
2019-04-30T14:53:11.866Z,101262.17
2019-04-30T14:55:21.272Z,101258.98
2019-04-30T14:57:27.564Z,101258.36
2019-04-30T14:59:48.979Z,101258.23
2019-04-30T15:01:52.270Z,101257.91
2019-04-30T15:03:54.003Z,101257.47
2019-04-30T15:05:55.382Z,101256.91
2019-04-30T15:07:56.820Z,101255.59
2019-04-30T15:09:58.213Z,101250.13
2019-04-30T15:11:59.682Z,101249.61
2019-04-30T15:14:01.354Z,101244.38
2019-04-30T15:16:02.815Z,101246.38
2019-04-30T15:18:04.180Z,101244.06
2019-04-30T15:20:06.083Z,101244.21
2019-04-30T15:22:09.109Z,101243.66
2019-04-30T15:24:19.301Z,101237.34
2019-04-30T15:26:24.553Z,101233.23
2019-04-30T15:28:32.142Z,101227.74
2019-04-30T15:30:28.909Z,101232.40
2019-04-30T15:32:30.474Z,101228.98
2019-04-30T15:34:51.740Z,101234.27
2019-04-30T15:36:53.157Z,101229.39
2019-04-30T15:39:12.964Z,101226.80
2019-04-30T15:41:14.690Z,101229.24
2019-04-30T15:43:16.045Z,101225.58
2019-04-30T15:45:19.129Z,101227.55
2019-04-30T15:47:22.295Z,101225.81
2019-04-30T15:49:23.692Z,101221.13
2019-04-30T15:51:25.094Z,101227.30
2019-04-30T15:53:26.478Z,101223.14
2019-04-30T15:55:27.971Z,101224.97
2019-04-30T15:57:29.584Z,101225.06
2019-04-30T15:59:33.045Z,101226.55
2019-04-30T16:01:34.561Z,101224.72
2019-04-30T16:03:37.839Z,101218.72
2019-04-30T16:05:41.134Z,101218.65
2019-04-30T16:07:44.457Z,101216.36
2019-04-30T16:09:48.895Z,101212.98
2019-04-30T16:12:09.334Z,101215.88
2019-04-30T16:14:21.568Z,101210.23
2019-04-30T16:16:23.951Z,101211.83
2019-04-30T16:18:30.122Z,101212.40
2019-04-30T16:20:30.730Z,101213.10
2019-04-30T16:22:32.106Z,101213.35
2019-04-30T16:24:33.595Z,101211.88
2019-04-30T16:26:46.369Z,101209.51
2019-04-30T16:28:39.071Z,101211.00
2019-04-30T16:30:42.811Z,101215.78
2019-04-30T16:32:43.987Z,101214.30
2019-04-30T16:34:45.372Z,101206.84
2019-04-30T16:36:46.786Z,101204.69
2019-04-30T16:38:48.688Z,101208.75
2019-04-30T16:40:50.246Z,101208.92
2019-04-30T16:42:51.668Z,101207.01
2019-04-30T16:44:53.031Z,101209.25
2019-04-30T16:46:54.447Z,101206.07
2019-04-30T16:48:55.822Z,101204.34
2019-04-30T16:50:58.674Z,101198.38
2019-04-30T16:53:00.507Z,101206.28
2019-04-30T16:55:04.391Z,101198.66
2019-04-30T16:57:06.793Z,101198.02
2019-04-30T16:59:10.474Z,101198.84
2019-04-30T17:01:13.755Z,101199.11
2019-04-30T17:03:19.925Z,101194.97
2019-04-30T17:05:23.219Z,101190.59
2019-04-30T17:07:35.359Z,101188.02
2019-04-30T17:09:38.642Z,101189.34
2019-04-30T17:11:59.473Z,101191.77
2019-04-30T17:14:01.624Z,101191.32
2019-04-30T17:16:11.313Z,101189.95
2019-04-30T17:18:13.056Z,101187.73
2019-04-30T17:20:14.559Z,101189.27
2019-04-30T17:22:15.967Z,101191.48
2019-04-30T17:24:19.324Z,101183.41
2019-04-30T17:26:20.780Z,101184.27
2019-04-30T17:28:22.149Z,101184.52
2019-04-30T17:30:23.543Z,101187.92
2019-04-30T17:32:24.931Z,101188.42
2019-04-30T17:34:26.316Z,101184.75
2019-04-30T17:36:29.661Z,101187.30
2019-04-30T17:38:31.077Z,101190.22
2019-04-30T17:40:32.466Z,101192.45
2019-04-30T17:42:33.824Z,101191.52
2019-04-30T17:44:35.228Z,101189.13
2019-04-30T17:46:38.464Z,101188.44
2019-04-30T17:48:39.887Z,101182.75
2019-04-30T17:50:41.348Z,101182.10
2019-04-30T17:52:42.716Z,101189.52
2019-04-30T17:54:44.102Z,101185.33
2019-04-30T17:56:45.514Z,101186.17
2019-04-30T17:58:46.900Z,101181.73
2019-04-30T18:00:50.287Z,101181.73
2019-04-30T18:02:51.798Z,101179.18
2019-04-30T18:04:53.180Z,101184.52
2019-04-30T18:06:54.895Z,101182.89
2019-04-30T18:08:56.255Z,101183.34
2019-04-30T18:10:57.836Z,101188.45
2019-04-30T18:12:59.223Z,101190.98
2019-04-30T18:15:00.593Z,101191.56
2019-04-30T18:17:01.960Z,101199.05
2019-04-30T18:19:08.797Z,101200.59
2019-04-30T18:21:21.038Z,101200.63
2019-04-30T18:23:39.582Z,101197.66
2019-04-30T18:25:42.899Z,101207.33
2019-04-30T18:27:52.177Z,101201.56
2019-04-30T18:29:53.606Z,101202.41
2019-04-30T18:31:56.004Z,101203.71
2019-04-30T18:33:59.041Z,101200.20
2019-04-30T18:36:00.747Z,101199.89
2019-04-30T18:38:02.108Z,101199.86
2019-04-30T18:40:05.918Z,101206.06
2019-04-30T18:42:10.804Z,101204.13
2019-04-30T18:44:10.906Z,101208.62
2019-04-30T18:46:12.345Z,101206.05
2019-04-30T18:48:13.706Z,101205.17
2019-04-30T18:50:15.536Z,101207.97
2019-04-30T18:52:18.823Z,101209.30
2019-04-30T18:54:20.935Z,101213.98
2019-04-30T18:56:22.537Z,101216.13
2019-04-30T18:58:36.845Z,101217.07
2019-04-30T19:00:31.980Z,101217.92
2019-04-30T19:02:33.515Z,101220.77
2019-04-30T19:04:34.887Z,101228.34
2019-04-30T19:06:36.289Z,101229.78
2019-04-30T19:08:42.449Z,101233.23
2019-04-30T19:11:04.269Z,101232.34
2019-04-30T19:13:22.776Z,101228.95
2019-04-30T19:16:11.436Z,101237.07
2019-04-30T19:17:46.455Z,101238.27
2019-04-30T19:20:04.974Z,101232.91
2019-04-30T19:22:06.357Z,101238.77
2019-04-30T19:24:08.638Z,101241.52
2019-04-30T19:26:10.128Z,101246.38
2019-04-30T19:28:14.467Z,101247.45
2019-04-30T19:30:15.774Z,101246.64
2019-04-30T19:32:17.179Z,101244.53
2019-04-30T19:34:18.595Z,101248.20
2019-04-30T19:36:20.993Z,101248.19
2019-04-30T19:38:23.488Z,101242.88
2019-04-30T19:40:24.884Z,101247.44
2019-04-30T19:42:26.245Z,101250.25
2019-04-30T19:44:29.346Z,101253.60
2019-04-30T19:46:31.000Z,101250.64
2019-04-30T19:48:32.383Z,101249.34
2019-04-30T19:50:33.839Z,101249.28
2019-04-30T19:52:35.237Z,101253.80
2019-04-30T19:54:36.637Z,101246.87
2019-04-30T19:56:39.219Z,101249.74
2019-04-30T19:58:54.297Z,101251.22
2019-04-30T20:00:44.180Z,101251.31
2019-04-30T20:02:45.630Z,101252.16
2019-04-30T20:04:47.084Z,101252.11
2019-04-30T20:06:48.811Z,101251.62
2019-04-30T20:08:50.386Z,101253.05
2019-04-30T20:10:51.791Z,101249.06
2019-04-30T20:12:53.161Z,101250.77
2019-04-30T20:14:54.609Z,101253.21
2019-04-30T20:16:56.069Z,101255.38
2019-04-30T20:18:59.189Z,101258.03
2019-04-30T20:21:02.953Z,101256.05
2019-04-30T20:23:04.403Z,101260.25
2019-04-30T20:25:06.092Z,101258.50
2019-04-30T20:27:10.235Z,101258.42
2019-04-30T20:29:11.013Z,101258.08
2019-04-30T20:31:12.422Z,101255.92
2019-04-30T20:33:13.858Z,101258.26
2019-04-30T20:35:15.376Z,101256.18
2019-04-30T20:37:16.794Z,101256.83
2019-04-30T20:39:20.099Z,101255.20
2019-04-30T20:41:22.162Z,101250.47
2019-04-30T20:43:23.591Z,101252.33
2019-04-30T20:45:25.050Z,101256.97
2019-04-30T20:47:26.506Z,101246.55
2019-04-30T20:49:29.137Z,101251.35
2019-04-30T20:51:30.746Z,101246.41
2019-04-30T20:53:32.264Z,101239.94
2019-04-30T20:55:33.690Z,101241.96
2019-04-30T20:57:35.086Z,101244.11
2019-04-30T20:59:38.665Z,101239.58
2019-04-30T21:01:39.960Z,101242.53
2019-04-30T21:03:41.404Z,101247.30
2019-04-30T21:05:42.817Z,101242.35
2019-04-30T21:07:44.243Z,101241.38
2019-04-30T21:09:45.639Z,101240.07
2019-04-30T21:11:48.986Z,101249.55
2019-04-30T21:13:50.529Z,101243.23
2019-04-30T21:15:54.920Z,101245.22
2019-04-30T21:17:55.412Z,101243.92
2019-04-30T21:19:56.807Z,101243.97
2019-04-30T21:21:59.605Z,101242.56
2019-04-30T21:24:01.568Z,101247.89
2019-04-30T21:26:03.036Z,101249.91
2019-04-30T21:28:04.528Z,101250.35
2019-04-30T21:30:08.072Z,101248.10
2019-04-30T21:32:11.555Z,101249.22
2019-04-30T21:34:30.475Z,101246.58
2019-04-30T21:36:31.970Z,101236.48
2019-04-30T21:38:33.386Z,101239.14
2019-04-30T21:40:36.696Z,101239.46
2019-04-30T21:42:38.042Z,101234.98
2019-04-30T21:44:39.451Z,101239.03
2019-04-30T21:46:40.839Z,101235.61
2019-04-30T21:48:42.252Z,101235.89
2019-04-30T21:50:43.654Z,101233.10
2019-04-30T21:52:45.055Z,101232.69
2019-04-30T21:54:48.601Z,101230.52
2019-04-30T21:56:49.733Z,101230.03
2019-04-30T21:58:51.104Z,101229.87
2019-04-30T22:01:06.199Z,101220.81
2019-04-30T22:03:09.581Z,101226.68
2019-04-30T22:05:11.065Z,101227.17
2019-04-30T22:07:12.453Z,101226.42
2019-04-30T22:09:14.574Z,101223.30
2019-04-30T22:11:15.971Z,101224.37
2019-04-30T22:13:18.506Z,101219.80
2019-04-30T22:15:20.152Z,101218.80
2019-04-30T22:17:21.571Z,101221.60
2019-04-30T22:19:22.960Z,101220.37
2019-04-30T22:21:24.326Z,101215.17
2019-04-30T22:23:25.742Z,101218.92
2019-04-30T22:25:29.197Z,101218.97
2019-04-30T22:27:30.437Z,101213.66
2019-04-30T22:29:39.400Z,101217.16
2019-04-30T22:31:35.177Z,101211.10
2019-04-30T22:33:36.568Z,101213.17
2019-04-30T22:35:45.922Z,101209.94
2019-04-30T22:37:50.553Z,101205.88
2019-04-30T22:39:53.994Z,101206.55
2019-04-30T22:42:19.914Z,101203.52
2019-04-30T22:44:21.276Z,101200.02
2019-04-30T22:46:22.641Z,101194.61
2019-04-30T22:48:24.431Z,101188.77
2019-04-30T22:50:25.791Z,101192.55
2019-04-30T22:52:27.154Z,101178.91
2019-04-30T22:54:28.579Z,101184.00
2019-04-30T22:56:29.987Z,101180.77
2019-04-30T22:58:31.354Z,101177.55
2019-04-30T23:00:37.555Z,101173.72
2019-04-30T23:02:57.694Z,101172.16
2019-04-30T23:05:00.857Z,101166.81
2019-04-30T23:07:02.216Z,101164.50
2019-04-30T23:09:06.437Z,101168.91
2019-04-30T23:11:07.804Z,101166.41
2019-04-30T23:13:09.236Z,101166.22
2019-04-30T23:15:11.437Z,101170.40
2019-04-30T23:17:12.863Z,101163.62
2019-04-30T23:19:14.299Z,101163.27
2019-04-30T23:21:15.758Z,101158.33
2019-04-30T23:23:17.266Z,101154.15
2019-04-30T23:25:18.653Z,101150.28